createdAt,value
2023-08-14T00:00:46.725Z,99.90
2023-08-14T00:01:49.859Z,99.90
2023-08-14T00:02:51.944Z,99.90
2023-08-14T00:03:55.077Z,99.90
2023-08-14T00:04:57.240Z,99.90
2023-08-14T00:06:00.661Z,99.90
2023-08-14T00:07:02.728Z,99.90
2023-08-14T00:08:07.512Z,99.90
2023-08-14T00:09:09.724Z,99.90
2023-08-14T00:10:12.794Z,99.90
2023-08-14T00:11:14.905Z,99.90
2023-08-14T00:12:18.254Z,99.90
2023-08-14T00:13:21.849Z,99.90
2023-08-14T00:14:25.123Z,99.90
2023-08-14T00:15:27.344Z,99.90
2023-08-14T00:16:31.160Z,99.90
2023-08-14T00:17:33.263Z,99.90
2023-08-14T00:18:36.388Z,99.90
2023-08-14T00:19:38.463Z,99.90
2023-08-14T00:20:41.506Z,99.90
2023-08-14T00:21:43.604Z,99.90
2023-08-14T00:22:46.733Z,99.90
2023-08-14T00:23:50.169Z,99.90
2023-08-14T00:24:53.342Z,99.90
2023-08-14T00:25:55.404Z,99.90
2023-08-14T00:26:58.452Z,99.90
2023-08-14T00:28:00.573Z,99.90
2023-08-14T00:29:04.163Z,99.90
2023-08-14T00:30:07.953Z,99.90
2023-08-14T00:31:11.201Z,99.90
2023-08-14T00:32:13.306Z,99.90
2023-08-14T00:33:16.539Z,99.90
2023-08-14T00:34:18.851Z,99.90
2023-08-14T00:35:22.239Z,99.90
2023-08-14T00:36:24.658Z,99.90
2023-08-14T00:37:42.889Z,99.90
2023-08-14T00:38:45.075Z,99.90
2023-08-14T00:39:49.546Z,99.90
2023-08-14T00:40:53.987Z,99.90
2023-08-14T00:41:57.188Z,99.90
2023-08-14T00:42:59.318Z,99.90
2023-08-14T00:44:01.425Z,99.90
2023-08-14T00:45:05.132Z,99.90
2023-08-14T00:46:08.504Z,99.90
2023-08-14T00:47:12.349Z,99.90
2023-08-14T00:48:15.757Z,99.90
2023-08-14T00:49:19.006Z,99.90
2023-08-14T00:50:22.791Z,99.90
2023-08-14T00:51:26.510Z,99.90
2023-08-14T00:52:32.950Z,99.90
2023-08-14T00:53:36.074Z,99.90
2023-08-14T00:54:39.749Z,99.90
2023-08-14T00:55:43.793Z,99.90
2023-08-14T00:56:47.367Z,99.90
2023-08-14T00:57:51.018Z,99.90
2023-08-14T00:58:54.178Z,99.90
2023-08-14T00:59:57.264Z,99.90
2023-08-14T01:01:00.184Z,99.90
2023-08-14T01:02:03.499Z,99.90
2023-08-14T01:03:07.131Z,99.90
2023-08-14T01:04:10.232Z,99.90
2023-08-14T01:05:12.535Z,99.90
2023-08-14T01:06:15.734Z,99.90
2023-08-14T01:07:18.102Z,99.90
2023-08-14T01:08:21.725Z,99.90
2023-08-14T01:09:23.881Z,99.90
2023-08-14T01:10:36.732Z,99.90
2023-08-14T01:11:48.910Z,99.90
2023-08-14T01:12:58.514Z,99.90
2023-08-14T01:14:08.947Z,99.90
2023-08-14T01:15:15.291Z,99.90
2023-08-14T01:16:22.054Z,99.90
2023-08-14T01:17:30.957Z,99.90
2023-08-14T01:18:38.186Z,99.90
2023-08-14T01:19:43.445Z,99.90
2023-08-14T01:20:59.615Z,99.90
2023-08-14T01:22:06.392Z,99.90
2023-08-14T01:23:22.186Z,99.90
2023-08-14T01:24:35.559Z,99.90
2023-08-14T01:25:40.674Z,99.90
2023-08-14T01:26:44.332Z,99.90
2023-08-14T01:27:46.998Z,99.90
2023-08-14T01:28:50.923Z,99.90
2023-08-14T01:29:58.818Z,99.90
2023-08-14T01:31:01.943Z,99.90
2023-08-14T01:32:04.620Z,99.90
2023-08-14T01:33:08.358Z,99.90
2023-08-14T01:34:11.139Z,99.90
2023-08-14T01:35:14.373Z,99.90
2023-08-14T01:36:21.932Z,99.90
2023-08-14T01:37:38.065Z,99.90
2023-08-14T01:38:46.316Z,99.90
2023-08-14T01:39:54.629Z,99.90
2023-08-14T01:41:05.600Z,99.90
2023-08-14T01:42:16.561Z,99.90
2023-08-14T01:43:32.853Z,99.90
2023-08-14T01:44:41.448Z,99.90
2023-08-14T01:45:43.601Z,99.90
2023-08-14T01:46:49.603Z,99.90
2023-08-14T01:47:53.667Z,99.90
2023-08-14T01:48:58.836Z,99.90
2023-08-14T01:50:03.212Z,99.90
2023-08-14T01:51:07.844Z,99.90
2023-08-14T01:52:11.799Z,99.90
2023-08-14T01:53:14.865Z,99.90
2023-08-14T01:54:17.007Z,99.90
2023-08-14T01:55:20.281Z,99.90
2023-08-14T01:56:23.855Z,99.90
2023-08-14T01:57:28.198Z,99.90
2023-08-14T01:58:31.048Z,99.90
2023-08-14T01:59:42.725Z,99.90
2023-08-14T02:00:44.863Z,99.90
2023-08-14T02:01:47.993Z,99.90
2023-08-14T02:02:51.734Z,99.90
2023-08-14T02:03:55.771Z,99.90
2023-08-14T02:05:03.403Z,99.90
2023-08-14T02:06:06.515Z,99.90
2023-08-14T02:07:10.964Z,99.90
2023-08-14T02:08:14.033Z,99.90
2023-08-14T02:09:16.107Z,99.90
2023-08-14T02:10:19.555Z,99.90
2023-08-14T02:11:23.235Z,99.90
2023-08-14T02:12:26.414Z,99.90
2023-08-14T02:13:28.546Z,99.90
2023-08-14T02:14:31.864Z,99.90
2023-08-14T02:15:33.972Z,99.90
2023-08-14T02:16:37.844Z,99.90
2023-08-14T02:17:40.309Z,99.90
2023-08-14T02:18:43.985Z,99.90
2023-08-14T02:19:46.083Z,99.90
2023-08-14T02:20:50.205Z,99.90
2023-08-14T02:21:52.330Z,99.90
2023-08-14T02:22:55.402Z,99.90
2023-08-14T02:23:59.357Z,99.90
2023-08-14T02:25:02.637Z,99.90
2023-08-14T02:26:05.635Z,99.90
2023-08-14T02:27:10.004Z,99.90
2023-08-14T02:28:12.959Z,99.90
2023-08-14T02:29:16.042Z,99.90
2023-08-14T02:30:18.467Z,99.90
2023-08-14T02:31:21.851Z,99.90
2023-08-14T02:32:23.949Z,99.90
2023-08-14T02:33:27.065Z,99.90
2023-08-14T02:34:34.413Z,99.90
2023-08-14T02:35:37.651Z,99.90
2023-08-14T02:36:39.731Z,99.90
2023-08-14T02:37:42.776Z,99.90
2023-08-14T02:38:45.048Z,99.90
2023-08-14T02:39:50.080Z,99.90
2023-08-14T02:40:52.166Z,99.90
2023-08-14T02:41:54.367Z,99.90
2023-08-14T02:43:02.014Z,99.90
2023-08-14T02:44:04.867Z,99.90
2023-08-14T02:45:09.293Z,99.90
2023-08-14T02:46:11.405Z,99.90
2023-08-14T02:47:14.685Z,99.90
2023-08-14T02:48:17.726Z,99.90
2023-08-14T02:49:19.984Z,99.90
2023-08-14T02:50:23.400Z,99.90
2023-08-14T02:51:25.644Z,99.90
2023-08-14T02:52:27.715Z,99.90
2023-08-14T02:53:30.957Z,99.90
2023-08-14T02:54:33.050Z,99.90
2023-08-14T02:55:36.107Z,99.90
2023-08-14T02:56:38.232Z,99.90
2023-08-14T02:57:41.277Z,99.90
2023-08-14T02:58:44.719Z,99.90
2023-08-14T02:59:47.770Z,99.90
2023-08-14T03:00:50.858Z,99.90
2023-08-14T03:01:54.035Z,99.90
2023-08-14T03:02:56.234Z,99.90
2023-08-14T03:03:59.423Z,99.90
2023-08-14T03:05:01.890Z,99.90
2023-08-14T03:06:05.447Z,99.90
2023-08-14T03:07:07.520Z,99.90
2023-08-14T03:08:10.637Z,99.90
2023-08-14T03:09:12.894Z,99.90
2023-08-14T03:10:16.172Z,99.90
2023-08-14T03:11:18.330Z,99.90
2023-08-14T03:12:21.437Z,99.90
2023-08-14T03:13:23.866Z,99.90
2023-08-14T03:14:28.270Z,99.90
2023-08-14T03:15:30.394Z,99.90
2023-08-14T03:16:33.729Z,99.90
2023-08-14T03:17:36.025Z,99.90
2023-08-14T03:18:39.436Z,99.90
2023-08-14T03:19:41.599Z,99.90
2023-08-14T03:20:44.690Z,99.90
2023-08-14T03:21:46.844Z,99.90
2023-08-14T03:22:49.913Z,99.90
2023-08-14T03:23:52.004Z,99.90
2023-08-14T03:24:55.476Z,99.90
2023-08-14T03:25:57.712Z,99.90
2023-08-14T03:27:00.805Z,99.90
2023-08-14T03:28:03.571Z,99.90
2023-08-14T03:29:06.795Z,99.90
2023-08-14T03:30:11.075Z,99.90
2023-08-14T03:31:15.082Z,99.90
2023-08-14T03:32:17.558Z,99.90
2023-08-14T03:33:21.630Z,99.90
2023-08-14T03:34:24.149Z,99.90
2023-08-14T03:35:27.485Z,99.90
2023-08-14T03:36:29.634Z,99.90
2023-08-14T03:37:35.462Z,99.90
2023-08-14T03:38:37.623Z,99.90
2023-08-14T03:39:41.048Z,99.90
2023-08-14T03:40:44.300Z,99.90
2023-08-14T03:41:46.813Z,99.90
2023-08-14T03:42:50.120Z,99.90
2023-08-14T03:43:52.339Z,99.90
2023-08-14T03:44:55.392Z,99.90
2023-08-14T03:45:58.868Z,99.90
2023-08-14T03:47:02.155Z,99.90
2023-08-14T03:48:06.367Z,99.90
2023-08-14T03:49:09.562Z,99.90
2023-08-14T03:50:12.488Z,99.90
2023-08-14T03:51:15.617Z,99.90
2023-08-14T03:52:18.224Z,99.90
2023-08-14T03:53:21.629Z,99.90
2023-08-14T03:54:23.827Z,99.90
2023-08-14T03:55:26.909Z,99.90
2023-08-14T03:56:29.088Z,99.90
2023-08-14T03:57:33.690Z,99.90
2023-08-14T03:58:35.830Z,99.90
2023-08-14T03:59:38.970Z,99.90
2023-08-14T04:00:41.107Z,99.90
2023-08-14T04:01:45.598Z,99.90
2023-08-14T04:02:47.971Z,99.90
2023-08-14T04:03:51.186Z,99.90
2023-08-14T04:04:53.386Z,99.90
2023-08-14T04:05:58.137Z,99.90
2023-08-14T04:07:00.520Z,99.90
2023-08-14T04:08:03.702Z,99.90
2023-08-14T04:09:06.467Z,99.90
2023-08-14T04:10:09.938Z,99.90
2023-08-14T04:11:12.482Z,99.90
2023-08-14T04:12:15.891Z,99.90
2023-08-14T04:13:18.148Z,99.90
2023-08-14T04:14:21.236Z,99.90
2023-08-14T04:15:24.419Z,99.90
2023-08-14T04:16:42.418Z,99.90
2023-08-14T04:17:46.356Z,99.90
2023-08-14T04:18:50.121Z,99.90
2023-08-14T04:19:52.170Z,99.90
2023-08-14T04:20:55.322Z,99.90
2023-08-14T04:21:57.763Z,99.90
2023-08-14T04:23:01.181Z,99.90
2023-08-14T04:24:03.509Z,99.90
2023-08-14T04:25:07.767Z,99.90
2023-08-14T04:26:10.099Z,99.90
2023-08-14T04:27:13.150Z,99.90
2023-08-14T04:28:15.491Z,99.90
2023-08-14T04:29:18.634Z,99.90
2023-08-14T04:30:21.370Z,99.90
2023-08-14T04:31:24.488Z,99.90
2023-08-14T04:32:26.796Z,99.90
2023-08-14T04:33:31.346Z,99.90
2023-08-14T04:34:33.874Z,99.90
2023-08-14T04:35:38.445Z,99.90
2023-08-14T04:36:41.824Z,99.90
2023-08-14T04:37:45.305Z,99.90
2023-08-14T04:38:47.715Z,99.90
2023-08-14T04:39:50.869Z,99.90
2023-08-14T04:40:53.021Z,99.90
2023-08-14T04:41:56.712Z,99.90
2023-08-14T04:43:01.166Z,99.90
2023-08-14T04:44:04.981Z,99.90
2023-08-14T04:45:08.306Z,99.90
2023-08-14T04:46:12.559Z,99.90
2023-08-14T04:47:14.904Z,99.90
2023-08-14T04:48:18.047Z,99.90
2023-08-14T04:49:21.667Z,99.90
2023-08-14T04:50:24.905Z,99.90
2023-08-14T04:51:27.943Z,99.90
2023-08-14T04:52:31.393Z,99.90
2023-08-14T04:53:34.292Z,99.90
2023-08-14T04:54:37.343Z,99.90
2023-08-14T04:55:40.517Z,99.90
2023-08-14T04:56:43.695Z,99.90
2023-08-14T04:57:46.500Z,99.90
2023-08-14T04:58:49.783Z,99.90
2023-08-14T04:59:51.892Z,99.90
2023-08-14T05:00:55.144Z,99.90
2023-08-14T05:01:57.289Z,99.90
2023-08-14T05:03:01.748Z,99.90
2023-08-14T05:04:04.877Z,99.90
2023-08-14T05:05:10.129Z,99.90
2023-08-14T05:06:12.215Z,99.90
2023-08-14T05:07:15.309Z,99.90
2023-08-14T05:08:17.532Z,99.90
2023-08-14T05:09:26.499Z,99.90
2023-08-14T05:10:30.804Z,99.90
2023-08-14T05:11:33.446Z,99.90
2023-08-14T05:12:36.634Z,99.90
2023-08-14T05:13:41.113Z,99.90
2023-08-14T05:14:44.209Z,99.90
2023-08-14T05:15:59.326Z,99.90
2023-08-14T05:17:10.083Z,99.90
2023-08-14T05:18:12.780Z,99.90
2023-08-14T05:19:14.992Z,99.90
2023-08-14T05:20:19.550Z,99.90
2023-08-14T05:21:21.956Z,99.90
2023-08-14T05:22:24.994Z,99.90
2023-08-14T05:23:27.110Z,99.90
2023-08-14T05:24:30.174Z,99.90
2023-08-14T05:25:33.306Z,99.90
2023-08-14T05:26:36.375Z,99.90
2023-08-14T05:27:40.104Z,99.90
2023-08-14T05:28:43.298Z,99.90
2023-08-14T05:29:47.989Z,99.90
2023-08-14T05:30:51.052Z,99.90
2023-08-14T05:31:53.094Z,99.90
2023-08-14T05:32:56.269Z,99.90
2023-08-14T05:33:58.386Z,99.90
2023-08-14T05:35:01.658Z,99.90
2023-08-14T05:36:05.384Z,99.90
2023-08-14T05:37:08.467Z,99.90
2023-08-14T05:38:10.557Z,99.90
2023-08-14T05:39:13.837Z,99.90
2023-08-14T05:40:16.205Z,99.90
2023-08-14T05:41:20.077Z,99.90
2023-08-14T05:42:22.393Z,99.90
2023-08-14T05:43:25.520Z,99.90
2023-08-14T05:44:27.607Z,99.90
2023-08-14T05:45:30.714Z,99.90
2023-08-14T05:46:32.803Z,99.90
2023-08-14T05:47:35.916Z,99.90
2023-08-14T05:48:38.127Z,99.90
2023-08-14T05:49:41.231Z,99.90
2023-08-14T05:50:43.476Z,99.90
2023-08-14T05:51:47.856Z,99.90
2023-08-14T05:52:50.172Z,99.90
2023-08-14T05:53:53.217Z,99.90
2023-08-14T05:54:57.140Z,99.90
2023-08-14T05:56:02.316Z,99.90
2023-08-14T05:57:04.404Z,99.90
2023-08-14T05:58:08.174Z,99.90
2023-08-14T05:59:10.375Z,98.00
2023-08-14T06:00:14.271Z,96.30
2023-08-14T06:01:16.486Z,94.70
2023-08-14T06:02:20.300Z,94.40
2023-08-14T06:03:33.106Z,93.20
2023-08-14T06:04:42.034Z,91.90
2023-08-14T06:05:44.573Z,90.90
2023-08-14T06:06:48.962Z,87.70
2023-08-14T06:07:52.630Z,84.60
2023-08-14T06:08:57.221Z,79.60
2023-08-14T06:10:01.251Z,75.70
2023-08-14T06:11:04.683Z,71.30
2023-08-14T06:12:07.847Z,66.50
2023-08-14T06:13:11.152Z,62.60
2023-08-14T06:14:13.257Z,59.40
2023-08-14T06:15:17.349Z,58.00
2023-08-14T06:16:19.696Z,56.60
2023-08-14T06:17:22.786Z,56.50
2023-08-14T06:18:25.400Z,56.50
2023-08-14T06:19:28.722Z,56.00
2023-08-14T06:20:31.024Z,55.10
2023-08-14T06:21:34.049Z,54.50
2023-08-14T06:22:40.852Z,53.80
2023-08-14T06:23:43.984Z,53.60
2023-08-14T06:24:46.334Z,53.30
2023-08-14T06:25:49.427Z,52.40
2023-08-14T06:26:51.493Z,51.80
2023-08-14T06:27:54.520Z,51.60
2023-08-14T06:28:57.185Z,51.80
2023-08-14T06:30:00.314Z,52.50
2023-08-14T06:31:03.139Z,52.40
2023-08-14T06:32:07.081Z,52.20
2023-08-14T06:33:09.509Z,51.20
2023-08-14T06:34:12.644Z,50.10
2023-08-14T06:35:15.614Z,48.90
2023-08-14T06:36:18.862Z,47.60
2023-08-14T06:37:20.960Z,46.60
2023-08-14T06:38:25.337Z,46.10
2023-08-14T06:39:27.729Z,45.20
2023-08-14T06:40:30.890Z,44.90
2023-08-14T06:41:33.106Z,44.10
2023-08-14T06:42:41.473Z,44.20
2023-08-14T06:43:46.174Z,43.60
2023-08-14T06:44:49.618Z,43.80
2023-08-14T06:45:51.710Z,44.70
2023-08-14T06:46:54.732Z,44.90
2023-08-14T06:47:56.874Z,45.20
2023-08-14T06:48:59.916Z,45.90
2023-08-14T06:50:01.989Z,46.50
2023-08-14T06:51:05.193Z,47.60
2023-08-14T06:52:07.518Z,48.50
2023-08-14T06:53:10.574Z,49.40
2023-08-14T06:54:30.793Z,49.40
2023-08-14T06:55:48.356Z,49.20
2023-08-14T06:56:50.536Z,49.60
2023-08-14T06:57:53.567Z,49.40
2023-08-14T06:58:55.632Z,49.00
2023-08-14T06:59:58.823Z,48.80
2023-08-14T07:01:01.028Z,48.80
2023-08-14T07:02:04.159Z,48.70
2023-08-14T07:03:06.286Z,48.80
2023-08-14T07:04:09.424Z,48.70
2023-08-14T07:05:12.409Z,48.50
2023-08-14T07:06:15.613Z,48.20
2023-08-14T07:07:17.872Z,47.60
2023-08-14T07:08:21.022Z,46.90
2023-08-14T07:09:25.094Z,46.80
2023-08-14T07:10:28.781Z,46.40
2023-08-14T07:11:37.655Z,45.90
2023-08-14T07:12:41.018Z,45.80
2023-08-14T07:13:43.094Z,44.70
2023-08-14T07:14:46.359Z,44.10
2023-08-14T07:15:48.888Z,43.90
2023-08-14T07:16:51.964Z,43.60
2023-08-14T07:17:54.094Z,43.70
2023-08-14T07:18:57.183Z,44.90
2023-08-14T07:19:59.374Z,45.30
2023-08-14T07:21:02.473Z,45.90
2023-08-14T07:22:04.612Z,45.70
2023-08-14T07:23:07.702Z,44.90
2023-08-14T07:24:09.935Z,44.70
2023-08-14T07:25:14.498Z,44.20
2023-08-14T07:26:17.424Z,44.70
2023-08-14T07:27:23.100Z,44.60
2023-08-14T07:28:26.535Z,44.40
2023-08-14T07:29:29.812Z,43.90
2023-08-14T07:30:32.285Z,43.20
2023-08-14T07:31:35.673Z,43.30
2023-08-14T07:32:37.857Z,42.50
2023-08-14T07:33:41.096Z,43.00
2023-08-14T07:34:43.194Z,44.50
2023-08-14T07:35:46.547Z,45.60
2023-08-14T07:36:48.779Z,47.20
2023-08-14T07:37:51.860Z,48.30
2023-08-14T07:38:54.262Z,49.40
2023-08-14T07:39:57.707Z,50.20
2023-08-14T07:41:01.101Z,51.40
2023-08-14T07:42:04.089Z,51.90
2023-08-14T07:43:08.346Z,52.90
2023-08-14T07:44:12.182Z,54.00
2023-08-14T07:45:14.338Z,55.30
2023-08-14T07:46:19.113Z,56.20
2023-08-14T07:47:22.235Z,56.50
2023-08-14T07:48:25.248Z,56.90
2023-08-14T07:49:27.327Z,57.30
2023-08-14T07:50:30.698Z,57.40
2023-08-14T07:51:32.917Z,57.90
2023-08-14T07:52:36.146Z,58.00
2023-08-14T07:53:38.239Z,58.30
2023-08-14T07:54:41.424Z,58.80
2023-08-14T07:55:43.659Z,59.40
2023-08-14T07:56:49.563Z,59.80
2023-08-14T07:57:53.330Z,61.00
2023-08-14T07:58:56.402Z,61.50
2023-08-14T07:59:58.666Z,62.30
2023-08-14T08:01:02.213Z,63.30
2023-08-14T08:02:04.434Z,64.20
2023-08-14T08:03:07.592Z,63.20
2023-08-14T08:04:10.246Z,63.50
2023-08-14T08:05:12.311Z,64.40
2023-08-14T08:06:15.389Z,64.20
2023-08-14T08:07:18.080Z,61.90
2023-08-14T08:08:20.681Z,59.20
2023-08-14T08:09:24.659Z,56.20
2023-08-14T08:10:26.791Z,54.40
2023-08-14T08:11:29.792Z,52.70
2023-08-14T08:12:33.240Z,50.70
2023-08-14T08:13:36.253Z,48.90
2023-08-14T08:14:38.337Z,47.10
2023-08-14T08:15:41.379Z,45.50
2023-08-14T08:16:45.602Z,43.50
2023-08-14T08:17:48.989Z,42.80
2023-08-14T08:18:51.131Z,42.10
2023-08-14T08:19:54.207Z,41.90
2023-08-14T08:20:56.391Z,41.10
2023-08-14T08:21:59.466Z,40.30
2023-08-14T08:23:01.730Z,39.10
2023-08-14T08:24:06.280Z,38.20
2023-08-14T08:25:09.124Z,37.40
2023-08-14T08:26:13.654Z,36.50
2023-08-14T08:27:17.710Z,36.30
2023-08-14T08:28:22.159Z,35.70
2023-08-14T08:29:25.039Z,35.70
2023-08-14T08:30:28.351Z,34.90
2023-08-14T08:31:30.659Z,34.80
2023-08-14T08:32:33.901Z,34.30
2023-08-14T08:33:36.251Z,34.10
2023-08-14T08:34:39.843Z,33.50
2023-08-14T08:35:41.935Z,33.10
2023-08-14T08:36:44.995Z,32.50
2023-08-14T08:37:47.442Z,32.00
2023-08-14T08:38:50.865Z,32.30
2023-08-14T08:39:53.909Z,32.30
2023-08-14T08:40:57.908Z,32.00
2023-08-14T08:42:00.556Z,31.90
2023-08-14T08:43:04.271Z,31.70
2023-08-14T08:44:10.958Z,32.10
2023-08-14T08:45:17.794Z,32.00
2023-08-14T08:46:23.729Z,32.20
2023-08-14T08:47:29.419Z,32.20
2023-08-14T08:48:35.551Z,33.20
2023-08-14T08:49:43.880Z,34.10
2023-08-14T08:50:48.104Z,35.50
2023-08-14T08:51:52.655Z,35.80
2023-08-14T08:52:56.432Z,36.00
2023-08-14T08:53:59.546Z,36.20
2023-08-14T08:55:03.979Z,35.60
2023-08-14T08:56:06.320Z,36.90
2023-08-14T08:57:10.570Z,37.40
2023-08-14T08:58:14.698Z,38.00
2023-08-14T08:59:22.681Z,38.50
2023-08-14T09:00:25.714Z,39.20
2023-08-14T09:02:33.584Z,41.20
2023-08-14T09:03:36.867Z,42.50
2023-08-14T09:04:39.243Z,43.60
2023-08-14T09:05:42.760Z,44.00
2023-08-14T09:06:45.125Z,43.80
2023-08-14T09:07:49.443Z,44.30
2023-08-14T09:08:51.652Z,44.60
2023-08-14T09:09:54.696Z,44.50
2023-08-14T09:10:56.907Z,45.30
2023-08-14T09:11:59.970Z,45.40
2023-08-14T09:13:03.075Z,45.60
2023-08-14T09:14:06.898Z,45.70
2023-08-14T09:15:11.031Z,46.90
2023-08-14T09:16:15.921Z,47.70
2023-08-14T09:17:18.378Z,47.80
2023-08-14T09:18:22.067Z,48.40
2023-08-14T09:19:24.254Z,48.80
2023-08-14T09:20:30.257Z,49.60
2023-08-14T09:21:33.166Z,49.60
2023-08-14T09:22:39.249Z,49.60
2023-08-14T09:23:42.314Z,49.20
2023-08-14T09:24:45.439Z,48.40
2023-08-14T09:25:48.163Z,47.90
2023-08-14T09:26:51.227Z,47.70
2023-08-14T09:27:55.087Z,48.00
2023-08-14T09:28:58.807Z,48.40
2023-08-14T09:30:01.586Z,49.20
2023-08-14T09:31:10.161Z,50.30
2023-08-14T09:32:12.376Z,51.10
2023-08-14T09:33:16.161Z,53.20
2023-08-14T09:34:18.654Z,54.10
2023-08-14T09:35:21.863Z,54.80
2023-08-14T09:36:24.052Z,55.60
2023-08-14T09:37:28.244Z,56.30
2023-08-14T09:38:32.217Z,57.30
2023-08-14T09:39:36.592Z,58.50
2023-08-14T09:40:38.852Z,59.20
2023-08-14T09:41:41.978Z,59.80
2023-08-14T09:42:45.367Z,61.40
2023-08-14T09:43:49.497Z,61.20
2023-08-14T09:44:52.363Z,60.50
2023-08-14T09:45:58.728Z,59.00
2023-08-14T09:47:03.234Z,58.50
2023-08-14T09:48:08.366Z,58.50
2023-08-14T09:49:11.246Z,58.20
2023-08-14T09:50:15.055Z,58.40
2023-08-14T09:51:18.709Z,58.30
2023-08-14T09:52:21.891Z,56.80
2023-08-14T09:53:23.932Z,56.30
2023-08-14T09:54:35.385Z,55.70
2023-08-14T09:55:38.350Z,55.20
2023-08-14T09:56:41.608Z,54.60
2023-08-14T09:57:43.693Z,53.50
2023-08-14T09:58:48.320Z,52.50
2023-08-14T09:59:50.491Z,51.30
2023-08-14T10:00:54.038Z,51.00
2023-08-14T10:01:59.891Z,49.80
2023-08-14T10:03:06.270Z,49.20
2023-08-14T10:04:08.796Z,49.30
2023-08-14T10:05:12.880Z,49.00
2023-08-14T10:06:16.496Z,48.80
2023-08-14T10:07:21.066Z,47.60
2023-08-14T10:08:23.498Z,46.50
2023-08-14T10:09:29.255Z,46.10
2023-08-14T10:10:33.437Z,45.40
2023-08-14T10:11:37.925Z,45.00
2023-08-14T10:12:46.456Z,44.40
2023-08-14T10:13:54.161Z,44.30
2023-08-14T10:15:05.055Z,44.20
2023-08-14T10:16:11.430Z,44.40
2023-08-14T10:17:19.422Z,44.50
2023-08-14T10:18:25.132Z,43.70
2023-08-14T10:19:30.557Z,43.50
2023-08-14T10:20:35.753Z,44.30
2023-08-14T10:25:04.521Z,43.10
2023-08-14T10:26:08.403Z,43.90
2023-08-14T10:27:11.703Z,43.50
2023-08-14T10:28:13.882Z,43.40
2023-08-14T10:29:18.032Z,43.20
2023-08-14T10:30:21.716Z,43.40
2023-08-14T10:31:26.062Z,44.40
2023-08-14T10:32:29.051Z,44.30
2023-08-14T10:33:33.677Z,43.60
2023-08-14T10:34:35.977Z,42.30
2023-08-14T10:35:51.385Z,42.10
2023-08-14T10:36:53.611Z,41.00
2023-08-14T10:38:09.610Z,40.40
2023-08-14T10:40:20.239Z,41.90
2023-08-14T10:41:23.647Z,41.90
2023-08-14T10:42:26.720Z,42.40
2023-08-14T10:43:30.124Z,43.00
2023-08-14T10:44:36.026Z,42.70
2023-08-14T10:45:38.765Z,42.30
2023-08-14T10:46:43.005Z,42.00
2023-08-14T10:47:45.648Z,41.70
2023-08-14T10:48:51.961Z,41.40
2023-08-14T10:49:54.527Z,40.90
2023-08-14T10:51:01.748Z,40.50
2023-08-14T10:52:04.965Z,41.40
2023-08-14T10:53:08.127Z,41.50
2023-08-14T10:54:12.511Z,41.60
2023-08-14T10:55:19.940Z,41.90
2023-08-14T10:56:22.027Z,41.70
2023-08-14T10:57:30.005Z,41.50
2023-08-14T10:58:48.457Z,40.50
2023-08-14T10:59:58.109Z,40.70
2023-08-14T11:01:01.540Z,39.70
2023-08-14T11:02:14.468Z,40.30
2023-08-14T11:03:17.079Z,41.40
2023-08-14T11:04:20.624Z,42.10
2023-08-14T11:05:25.455Z,42.00
2023-08-14T11:06:30.039Z,42.20
2023-08-14T11:07:35.161Z,41.80
2023-08-14T11:08:37.862Z,42.20
2023-08-14T11:09:41.175Z,42.50
2023-08-14T11:10:45.903Z,42.90
2023-08-14T11:11:49.598Z,42.50
2023-08-14T11:12:52.895Z,43.00
2023-08-14T11:13:55.178Z,41.80
2023-08-14T11:14:59.628Z,41.70
2023-08-14T11:16:03.049Z,42.30
2023-08-14T11:17:05.984Z,42.50
2023-08-14T11:18:10.888Z,41.80
2023-08-14T11:19:14.404Z,42.10
2023-08-14T11:20:19.122Z,40.90
2023-08-14T11:21:31.395Z,41.80
2023-08-14T11:22:35.357Z,43.40
2023-08-14T11:23:37.618Z,43.00
2023-08-14T11:24:41.223Z,43.60
2023-08-14T11:25:43.413Z,44.10
2023-08-14T11:26:46.438Z,43.90
2023-08-14T11:27:50.582Z,44.00
2023-08-14T11:28:53.621Z,44.40
2023-08-14T11:29:57.971Z,44.10
2023-08-14T11:31:05.428Z,44.20
2023-08-14T11:32:08.470Z,44.50
2023-08-14T11:33:11.736Z,44.00
2023-08-14T11:34:14.090Z,44.40
2023-08-14T11:35:18.819Z,45.20
2023-08-14T11:36:21.357Z,44.90
2023-08-14T11:37:24.636Z,44.90
2023-08-14T11:38:27.184Z,45.70
2023-08-14T11:39:30.529Z,46.00
2023-08-14T11:40:33.058Z,46.20
2023-08-14T11:41:36.249Z,45.80
2023-08-14T11:42:40.647Z,45.30
2023-08-14T11:43:46.747Z,45.10
2023-08-14T11:44:49.086Z,44.70
2023-08-14T11:45:53.692Z,44.00
2023-08-14T11:46:57.456Z,43.70
2023-08-14T11:48:00.681Z,43.50
2023-08-14T11:49:03.021Z,43.70
2023-08-14T11:50:07.294Z,43.50
2023-08-14T11:51:10.995Z,43.10
2023-08-14T11:52:14.305Z,42.20
2023-08-14T11:53:16.460Z,42.80
2023-08-14T11:54:19.219Z,42.20
2023-08-14T11:55:23.779Z,41.40
2023-08-14T11:56:27.025Z,41.70
2023-08-14T11:57:31.629Z,41.50
2023-08-14T11:58:37.244Z,41.70
2023-08-14T11:59:40.450Z,40.80
2023-08-14T12:00:43.249Z,41.20
2023-08-14T12:01:46.650Z,41.70
2023-08-14T12:02:50.794Z,41.70
2023-08-14T12:03:54.714Z,42.20
2023-08-14T12:04:58.674Z,42.00
2023-08-14T12:06:03.191Z,42.10
2023-08-14T12:07:06.737Z,42.30
2023-08-14T12:08:10.066Z,41.20
2023-08-14T12:09:12.207Z,41.30
2023-08-14T12:10:18.440Z,41.40
2023-08-14T12:11:21.344Z,40.70
2023-08-14T12:12:24.667Z,40.30
2023-08-14T12:13:27.207Z,39.70
2023-08-14T12:14:40.217Z,39.20
2023-08-14T12:15:42.366Z,39.10
2023-08-14T12:16:46.807Z,39.30
2023-08-14T12:17:49.126Z,39.10
2023-08-14T12:18:52.461Z,39.10
2023-08-14T12:19:55.877Z,40.00
2023-08-14T12:20:59.061Z,40.40
2023-08-14T12:22:01.526Z,40.50
2023-08-14T12:23:15.955Z,41.00
2023-08-14T12:24:18.310Z,41.60
2023-08-14T12:25:22.923Z,42.20
2023-08-14T12:26:25.643Z,42.20
2023-08-14T12:27:29.871Z,43.50
2023-08-14T12:28:32.233Z,43.20
2023-08-14T12:29:36.404Z,43.30
2023-08-14T12:30:38.543Z,43.60
2023-08-14T12:31:41.756Z,43.70
2023-08-14T12:32:47.737Z,44.20
2023-08-14T12:33:56.302Z,43.80
2023-08-14T12:35:01.728Z,44.60
2023-08-14T12:36:05.288Z,44.10
2023-08-14T12:37:08.118Z,44.60
2023-08-14T12:38:11.419Z,45.00
2023-08-14T12:39:14.806Z,45.50
2023-08-14T12:40:17.950Z,45.50
2023-08-14T12:41:20.137Z,45.20
2023-08-14T12:42:23.336Z,45.90
2023-08-14T12:43:36.538Z,45.10
2023-08-14T12:44:43.139Z,44.80
2023-08-14T12:45:45.253Z,43.90
2023-08-14T12:46:48.391Z,43.20
2023-08-14T12:47:50.649Z,43.40
2023-08-14T12:48:53.750Z,43.10
2023-08-14T12:49:55.777Z,42.90
2023-08-14T12:51:02.767Z,42.60
2023-08-14T12:52:10.036Z,43.10
2023-08-14T12:53:17.509Z,42.60
2023-08-14T12:54:22.185Z,43.50
2023-08-14T12:55:25.288Z,42.20
2023-08-14T12:56:28.276Z,42.80
2023-08-14T12:57:31.516Z,43.30
2023-08-14T12:58:34.216Z,43.40
2023-08-14T12:59:36.399Z,43.70
2023-08-14T13:00:39.743Z,44.80
2023-08-14T13:01:47.281Z,44.30
2023-08-14T13:02:51.320Z,44.40
2023-08-14T13:03:55.283Z,45.20
2023-08-14T13:05:00.409Z,46.10
2023-08-14T13:06:02.882Z,46.90
2023-08-14T13:07:06.171Z,49.80
2023-08-14T13:08:08.363Z,49.70
2023-08-14T13:09:13.655Z,50.70
2023-08-14T13:10:17.492Z,52.30
2023-08-14T13:11:20.952Z,50.80
2023-08-14T13:12:22.984Z,50.50
2023-08-14T13:13:28.425Z,50.30
2023-08-14T13:14:30.835Z,50.20
2023-08-14T13:15:34.223Z,50.90
2023-08-14T13:16:36.365Z,50.40
2023-08-14T13:17:39.413Z,50.70
2023-08-14T13:18:41.520Z,50.70
2023-08-14T13:19:44.792Z,50.00
2023-08-14T13:20:47.114Z,50.40
2023-08-14T13:21:50.100Z,49.00
2023-08-14T13:22:52.597Z,48.70
2023-08-14T13:23:55.793Z,48.80
2023-08-14T13:24:58.478Z,47.20
2023-08-14T13:26:02.899Z,46.90
2023-08-14T13:27:16.711Z,46.70
2023-08-14T13:28:20.043Z,46.40
2023-08-14T13:29:22.148Z,44.10
2023-08-14T13:30:25.263Z,44.30
2023-08-14T13:31:28.599Z,43.80
2023-08-14T13:32:31.723Z,43.60
2023-08-14T13:33:33.785Z,42.80
2023-08-14T13:34:37.040Z,41.80
2023-08-14T13:35:39.235Z,41.50
2023-08-14T13:36:42.443Z,41.40
2023-08-14T13:37:44.677Z,41.00
2023-08-14T13:38:47.772Z,41.10
2023-08-14T13:39:49.947Z,41.00
2023-08-14T13:40:52.992Z,41.20
2023-08-14T13:41:56.779Z,40.80
2023-08-14T13:42:59.838Z,41.00
2023-08-14T13:44:01.989Z,40.60
2023-08-14T13:45:17.602Z,40.70
2023-08-14T13:46:21.425Z,40.70
2023-08-14T13:47:28.795Z,40.40
2023-08-14T13:48:33.211Z,39.50